Terminal Aerodrome Forecast
Issued by NWS El Paso, TX

Home | Current Version | Previous Version | Text Only | Print | Product List | Glossary On
Versions: 1 2 3 4 5 6 7 8 9 10 11 12 13 14
381
FTUS44 KEPZ 181726
TAFELP
TAF
KELP 181726Z 1818/1918 VRB04KT P6SM FEW250
     FM182000 24006KT P6SM FEW250
     FM190400 19005KT P6SM SCT250=

USA.gov is the U.S. government's official web portal to all federal, state and local government web resources and services.